sensor_id;sensor_type;location;lat;lon;timestamp;pressure;altitude;pressure_sealevel;temperature
18219;BMP180;9234;49.344;11.120;2023-04-24T00:00:38;96496.00;;;11.90
18219;BMP180;9234;49.344;11.120;2023-04-24T00:03:08;96499.00;;;11.90
18219;BMP180;9234;49.344;11.120;2023-04-24T00:05:36;96498.00;;;11.90
18219;BMP180;9234;49.344;11.120;2023-04-24T00:08:04;96488.00;;;11.80
18219;BMP180;9234;49.344;11.120;2023-04-24T00:10:33;96501.00;;;11.90
18219;BMP180;9234;49.344;11.120;2023-04-24T00:13:02;96495.00;;;11.80
18219;BMP180;9234;49.344;11.120;2023-04-24T00:15:30;96501.00;;;11.80
18219;BMP180;9234;49.344;11.120;2023-04-24T00:17:59;96507.00;;;11.80
18219;BMP180;9234;49.344;11.120;2023-04-24T00:20:28;96490.00;;;11.80
18219;BMP180;9234;49.344;11.120;2023-04-24T00:22:56;96491.00;;;11.80
18219;BMP180;9234;49.344;11.120;2023-04-24T00:25:25;96493.00;;;11.70
18219;BMP180;9234;49.344;11.120;2023-04-24T00:27:53;96497.00;;;11.80
18219;BMP180;9234;49.344;11.120;2023-04-24T00:30:22;96493.00;;;11.70
18219;BMP180;9234;49.344;11.120;2023-04-24T00:32:51;96495.00;;;11.70
18219;BMP180;9234;49.344;11.120;2023-04-24T00:35:19;96494.00;;;11.70
18219;BMP180;9234;49.344;11.120;2023-04-24T00:37:47;96492.00;;;11.70
18219;BMP180;9234;49.344;11.120;2023-04-24T00:40:16;96491.00;;;11.70
18219;BMP180;9234;49.344;11.120;2023-04-24T00:42:45;96468.00;;;11.70
18219;BMP180;9234;49.344;11.120;2023-04-24T00:45:13;96477.00;;;11.70
18219;BMP180;9234;49.344;11.120;2023-04-24T00:47:45;96476.00;;;11.70
18219;BMP180;9234;49.344;11.120;2023-04-24T00:50:16;96477.00;;;11.70
18219;BMP180;9234;49.344;11.120;2023-04-24T00:52:44;96473.00;;;11.70
18219;BMP180;9234;49.344;11.120;2023-04-24T00:55:12;96474.00;;;11.70
18219;BMP180;9234;49.344;11.120;2023-04-24T00:57:41;96487.00;;;11.60
18219;BMP180;9234;49.344;11.120;2023-04-24T01:00:10;96480.00;;;11.60
18219;BMP180;9234;49.344;11.120;2023-04-24T01:02:40;96488.00;;;11.60
18219;BMP180;9234;49.344;11.120;2023-04-24T01:05:13;96486.00;;;11.60
18219;BMP180;9234;49.344;11.120;2023-04-24T01:07:45;96475.00;;;11.50
18219;BMP180;9234;49.344;11.120;2023-04-24T01:10:16;96479.00;;;11.50
18219;BMP180;9234;49.344;11.120;2023-04-24T01:12:46;96494.00;;;11.50
18219;BMP180;9234;49.344;11.120;2023-04-24T01:15:14;96469.00;;;11.50
18219;BMP180;9234;49.344;11.120;2023-04-24T01:17:42;96490.00;;;11.50
18219;BMP180;9234;49.344;11.120;2023-04-24T01:20:12;96484.00;;;11.50
18219;BMP180;9234;49.344;11.120;2023-04-24T01:22:43;96487.00;;;11.40
18219;BMP180;9234;49.344;11.120;2023-04-24T01:25:12;96483.00;;;11.40
18219;BMP180;9234;49.344;11.120;2023-04-24T01:27:40;96474.00;;;11.40
18219;BMP180;9234;49.344;11.120;2023-04-24T01:30:11;96486.00;;;11.40
18219;BMP180;9234;49.344;11.120;2023-04-24T01:32:40;96472.00;;;11.30
18219;BMP180;9234;49.344;11.120;2023-04-24T01:35:08;96475.00;;;11.30
18219;BMP180;9234;49.344;11.120;2023-04-24T01:37:37;96474.00;;;11.30
18219;BMP180;9234;49.344;11.120;2023-04-24T01:40:08;96495.00;;;11.30
18219;BMP180;9234;49.344;11.120;2023-04-24T01:42:36;96488.00;;;11.20
18219;BMP180;9234;49.344;11.120;2023-04-24T01:45:06;96478.00;;;11.20
18219;BMP180;9234;49.344;11.120;2023-04-24T01:47:38;96475.00;;;11.20
18219;BMP180;9234;49.344;11.120;2023-04-24T01:50:08;96478.00;;;11.20
18219;BMP180;9234;49.344;11.120;2023-04-24T01:52:38;96485.00;;;11.20
18219;BMP180;9234;49.344;11.120;2023-04-24T01:55:11;96478.00;;;11.10
18219;BMP180;9234;49.344;11.120;2023-04-24T01:57:40;96471.00;;;11.10
18219;BMP180;9234;49.344;11.120;2023-04-24T02:00:09;96483.00;;;11.10
18219;BMP180;9234;49.344;11.120;2023-04-24T02:02:41;96472.00;;;11.10
18219;BMP180;9234;49.344;11.120;2023-04-24T02:05:14;96459.00;;;11.10
18219;BMP180;9234;49.344;11.120;2023-04-24T02:07:42;96455.00;;;11.10
18219;BMP180;9234;49.344;11.120;2023-04-24T02:10:12;96447.00;;;11.10
18219;BMP180;9234;49.344;11.120;2023-04-24T02:12:42;96462.00;;;11.10
18219;BMP180;9234;49.344;11.120;2023-04-24T02:15:11;96438.00;;;11.10
18219;BMP180;9234;49.344;11.120;2023-04-24T02:17:39;96450.00;;;11.00
18219;BMP180;9234;49.344;11.120;2023-04-24T02:20:08;96442.00;;;11.00
18219;BMP180;9234;49.344;11.120;2023-04-24T02:22:38;96440.00;;;11.00
18219;BMP180;9234;49.344;11.120;2023-04-24T02:25:07;96448.00;;;11.00
18219;BMP180;9234;49.344;11.120;2023-04-24T02:27:37;96447.00;;;11.00
18219;BMP180;9234;49.344;11.120;2023-04-24T02:30:07;96451.00;;;11.00
18219;BMP180;9234;49.344;11.120;2023-04-24T02:32:35;96452.00;;;10.90
18219;BMP180;9234;49.344;11.120;2023-04-24T02:35:04;96452.00;;;10.90
18219;BMP180;9234;49.344;11.120;2023-04-24T02:37:33;96448.00;;;10.90
18219;BMP180;9234;49.344;11.120;2023-04-24T02:40:01;96451.00;;;10.90
18219;BMP180;9234;49.344;11.120;2023-04-24T02:42:30;96439.00;;;10.90
18219;BMP180;9234;49.344;11.120;2023-04-24T02:45:00;96439.00;;;10.90
18219;BMP180;9234;49.344;11.120;2023-04-24T02:47:28;96433.00;;;10.90
18219;BMP180;9234;49.344;11.120;2023-04-24T02:49:57;96439.00;;;10.90
18219;BMP180;9234;49.344;11.120;2023-04-24T02:52:25;96436.00;;;10.90
18219;BMP180;9234;49.344;11.120;2023-04-24T02:54:53;96437.00;;;10.90
18219;BMP180;9234;49.344;11.120;2023-04-24T02:57:21;96444.00;;;10.90
18219;BMP180;9234;49.344;11.120;2023-04-24T02:59:50;96443.00;;;10.90
18219;BMP180;9234;49.344;11.120;2023-04-24T03:02:19;96434.00;;;10.90
18219;BMP180;9234;49.344;11.120;2023-04-24T03:04:48;96434.00;;;10.90
18219;BMP180;9234;49.344;11.120;2023-04-24T03:07:17;96447.00;;;10.90
18219;BMP180;9234;49.344;11.120;2023-04-24T03:09:47;96436.00;;;10.90
18219;BMP180;9234;49.344;11.120;2023-04-24T03:12:15;96439.00;;;10.90
18219;BMP180;9234;49.344;11.120;2023-04-24T03:14:44;96433.00;;;10.90
18219;BMP180;9234;49.344;11.120;2023-04-24T03:17:12;96430.00;;;10.90
18219;BMP180;9234;49.344;11.120;2023-04-24T03:19:42;96433.00;;;10.90
18219;BMP180;9234;49.344;11.120;2023-04-24T03:22:12;96436.00;;;10.90
18219;BMP180;9234;49.344;11.120;2023-04-24T03:24:42;96431.00;;;10.90
18219;BMP180;9234;49.344;11.120;2023-04-24T03:27:14;96428.00;;;10.90
18219;BMP180;9234;49.344;11.120;2023-04-24T03:29:49;96433.00;;;10.90
18219;BMP180;9234;49.344;11.120;2023-04-24T03:32:26;96434.00;;;10.90
18219;BMP180;9234;49.344;11.120;2023-04-24T03:34:55;96436.00;;;10.90
18219;BMP180;9234;49.344;11.120;2023-04-24T03:37:25;96446.00;;;10.90
18219;BMP180;9234;49.344;11.120;2023-04-24T03:40:09;96446.00;;;10.90
18219;BMP180;9234;49.344;11.120;2023-04-24T03:42:38;96443.00;;;10.80
18219;BMP180;9234;49.344;11.120;2023-04-24T03:45:08;96427.00;;;10.80
18219;BMP180;9234;49.344;11.120;2023-04-24T03:47:39;96436.00;;;10.80
18219;BMP180;9234;49.344;11.120;2023-04-24T03:50:09;96428.00;;;10.80
18219;BMP180;9234;49.344;11.120;2023-04-24T03:52:40;96433.00;;;10.70
18219;BMP180;9234;49.344;11.120;2023-04-24T03:55:09;96445.00;;;10.70
18219;BMP180;9234;49.344;11.120;2023-04-24T03:57:44;96441.00;;;10.70
18219;BMP180;9234;49.344;11.120;2023-04-24T04:00:20;96437.00;;;10.70
18219;BMP180;9234;49.344;11.120;2023-04-24T04:02:57;96452.00;;;10.70
18219;BMP180;9234;49.344;11.120;2023-04-24T04:05:27;96448.00;;;10.70
18219;BMP180;9234;49.344;11.120;2023-04-24T04:07:56;96449.00;;;10.70
18219;BMP180;9234;49.344;11.120;2023-04-24T04:10:25;96445.00;;;10.70
18219;BMP180;9234;49.344;11.120;2023-04-24T04:12:53;96453.00;;;10.70
18219;BMP180;9234;49.344;11.120;2023-04-24T04:15:21;96451.00;;;10.70
18219;BMP180;9234;49.344;11.120;2023-04-24T04:17:50;96450.00;;;10.70
18219;BMP180;9234;49.344;11.120;2023-04-24T04:20:18;96444.00;;;10.70
18219;BMP180;9234;49.344;11.120;2023-04-24T04:22:48;96447.00;;;10.80
18219;BMP180;9234;49.344;11.120;2023-04-24T04:25:24;96444.00;;;10.80
18219;BMP180;9234;49.344;11.120;2023-04-24T04:27:52;96448.00;;;10.80
18219;BMP180;9234;49.344;11.120;2023-04-24T04:30:20;96438.00;;;10.80
18219;BMP180;9234;49.344;11.120;2023-04-24T04:32:56;96445.00;;;10.80
18219;BMP180;9234;49.344;11.120;2023-04-24T04:35:24;96450.00;;;10.80
18219;BMP180;9234;49.344;11.120;2023-04-24T04:37:54;96447.00;;;10.80
18219;BMP180;9234;49.344;11.120;2023-04-24T04:40:48;96437.00;;;10.80
18219;BMP180;9234;49.344;11.120;2023-04-24T04:43:18;96434.00;;;10.80
18219;BMP180;9234;49.344;11.120;2023-04-24T04:45:51;96444.00;;;10.90
18219;BMP180;9234;49.344;11.120;2023-04-24T04:48:34;96456.00;;;10.90
18219;BMP180;9234;49.344;11.120;2023-04-24T04:51:05;96440.00;;;10.90
18219;BMP180;9234;49.344;11.120;2023-04-24T04:53:34;96437.00;;;10.90
18219;BMP180;9234;49.344;11.120;2023-04-24T04:56:03;96446.00;;;11.00
18219;BMP180;9234;49.344;11.120;2023-04-24T04:58:36;96442.00;;;11.00
18219;BMP180;9234;49.344;11.120;2023-04-24T05:01:07;96448.00;;;11.00
18219;BMP180;9234;49.344;11.120;2023-04-24T05:03:40;96450.00;;;11.10
18219;BMP180;9234;49.344;11.120;2023-04-24T05:06:12;96452.00;;;11.10
18219;BMP180;9234;49.344;11.120;2023-04-24T05:08:42;96449.00;;;11.10
18219;BMP180;9234;49.344;11.120;2023-04-24T05:11:19;96455.00;;;11.20
18219;BMP180;9234;49.344;11.120;2023-04-24T05:13:48;96459.00;;;11.20
18219;BMP180;9234;49.344;11.120;2023-04-24T05:16:24;96467.00;;;11.20
18219;BMP180;9234;49.344;11.120;2023-04-24T05:18:54;96464.00;;;11.30
18219;BMP180;9234;49.344;11.120;2023-04-24T05:21:28;96468.00;;;11.30
18219;BMP180;9234;49.344;11.120;2023-04-24T05:23:59;96468.00;;;11.40
18219;BMP180;9234;49.344;11.120;2023-04-24T05:26:53;96473.00;;;11.40
18219;BMP180;9234;49.344;11.120;2023-04-24T05:29:26;96486.00;;;11.50
18219;BMP180;9234;49.344;11.120;2023-04-24T05:31:57;96491.00;;;11.50
18219;BMP180;9234;49.344;11.120;2023-04-24T05:34:27;96479.00;;;11.60
18219;BMP180;9234;49.344;11.120;2023-04-24T05:36:56;96490.00;;;11.60
18219;BMP180;9234;49.344;11.120;2023-04-24T05:39:27;96495.00;;;11.70
18219;BMP180;9234;49.344;11.120;2023-04-24T05:41:55;96498.00;;;11.70
18219;BMP180;9234;49.344;11.120;2023-04-24T05:44:25;96479.00;;;11.80
18219;BMP180;9234;49.344;11.120;2023-04-24T05:46:53;96501.00;;;11.90
18219;BMP180;9234;49.344;11.120;2023-04-24T05:49:22;96490.00;;;12.00
18219;BMP180;9234;49.344;11.120;2023-04-24T05:51:51;96490.00;;;12.00
18219;BMP180;9234;49.344;11.120;2023-04-24T05:54:19;96510.00;;;12.20
18219;BMP180;9234;49.344;11.120;2023-04-24T05:56:49;96504.00;;;12.30
18219;BMP180;9234;49.344;11.120;2023-04-24T05:59:27;96499.00;;;12.40
18219;BMP180;9234;49.344;11.120;2023-04-24T06:01:57;96502.00;;;12.50
18219;BMP180;9234;49.344;11.120;2023-04-24T06:04:25;96498.00;;;12.70
18219;BMP180;9234;49.344;11.120;2023-04-24T06:06:54;96493.00;;;12.80
18219;BMP180;9234;49.344;11.120;2023-04-24T06:09:23;96505.00;;;12.80
18219;BMP180;9234;49.344;11.120;2023-04-24T06:11:53;96508.00;;;12.90
18219;BMP180;9234;49.344;11.120;2023-04-24T06:14:25;96506.00;;;13.00
18219;BMP180;9234;49.344;11.120;2023-04-24T06:17:15;96512.00;;;13.10
18219;BMP180;9234;49.344;11.120;2023-04-24T06:19:45;96518.00;;;13.20
18219;BMP180;9234;49.344;11.120;2023-04-24T06:22:14;96501.00;;;13.30
18219;BMP180;9234;49.344;11.120;2023-04-24T06:24:42;96512.00;;;13.40
18219;BMP180;9234;49.344;11.120;2023-04-24T06:27:12;96525.00;;;13.50
18219;BMP180;9234;49.344;11.120;2023-04-24T06:29:41;96521.00;;;13.50
18219;BMP180;9234;49.344;11.120;2023-04-24T06:32:10;96517.00;;;13.50
18219;BMP180;9234;49.344;11.120;2023-04-24T06:34:39;96521.00;;;13.60
18219;BMP180;9234;49.344;11.120;2023-04-24T06:37:07;96524.00;;;13.60
18219;BMP180;9234;49.344;11.120;2023-04-24T06:39:35;96536.00;;;13.60
18219;BMP180;9234;49.344;11.120;2023-04-24T06:42:04;96530.00;;;13.50
18219;BMP180;9234;49.344;11.120;2023-04-24T06:44:35;96526.00;;;13.50
18219;BMP180;9234;49.344;11.120;2023-04-24T06:47:08;96536.00;;;13.50
18219;BMP180;9234;49.344;11.120;2023-04-24T06:49:37;96527.00;;;13.40
18219;BMP180;9234;49.344;11.120;2023-04-24T06:52:06;96535.00;;;13.30
18219;BMP180;9234;49.344;11.120;2023-04-24T06:54:34;96529.00;;;13.40
18219;BMP180;9234;49.344;11.120;2023-04-24T06:57:02;96538.00;;;13.40
18219;BMP180;9234;49.344;11.120;2023-04-24T06:59:30;96554.00;;;13.50
18219;BMP180;9234;49.344;11.120;2023-04-24T07:02:00;96545.00;;;13.50
18219;BMP180;9234;49.344;11.120;2023-04-24T07:04:28;96551.00;;;13.50
18219;BMP180;9234;49.344;11.120;2023-04-24T07:06:57;96545.00;;;13.50
18219;BMP180;9234;49.344;11.120;2023-04-24T07:09:26;96564.00;;;13.50
18219;BMP180;9234;49.344;11.120;2023-04-24T07:11:55;96558.00;;;13.50
18219;BMP180;9234;49.344;11.120;2023-04-24T07:14:24;96555.00;;;13.60
18219;BMP180;9234;49.344;11.120;2023-04-24T07:16:52;96551.00;;;13.60
18219;BMP180;9234;49.344;11.120;2023-04-24T07:19:22;96580.00;;;13.50
18219;BMP180;9234;49.344;11.120;2023-04-24T07:21:50;96572.00;;;13.50
18219;BMP180;9234;49.344;11.120;2023-04-24T07:24:18;96576.00;;;13.40
18219;BMP180;9234;49.344;11.120;2023-04-24T07:26:48;96581.00;;;13.30
18219;BMP180;9234;49.344;11.120;2023-04-24T07:29:18;96586.00;;;13.30
18219;BMP180;9234;49.344;11.120;2023-04-24T07:31:47;96583.00;;;13.20
18219;BMP180;9234;49.344;11.120;2023-04-24T07:34:16;96576.00;;;13.20
18219;BMP180;9234;49.344;11.120;2023-04-24T07:36:46;96594.00;;;13.20
18219;BMP180;9234;49.344;11.120;2023-04-24T07:39:14;96580.00;;;13.10
18219;BMP180;9234;49.344;11.120;2023-04-24T07:41:42;96591.00;;;13.20
18219;BMP180;9234;49.344;11.120;2023-04-24T07:44:10;96603.00;;;13.20
18219;BMP180;9234;49.344;11.120;2023-04-24T07:46:39;96599.00;;;13.30
18219;BMP180;9234;49.344;11.120;2023-04-24T07:49:08;96591.00;;;13.40
18219;BMP180;9234;49.344;11.120;2023-04-24T07:51:40;96594.00;;;13.40
18219;BMP180;9234;49.344;11.120;2023-04-24T07:54:10;96603.00;;;13.50
18219;BMP180;9234;49.344;11.120;2023-04-24T07:56:38;96605.00;;;13.50
18219;BMP180;9234;49.344;11.120;2023-04-24T07:59:07;96596.00;;;13.50
18219;BMP180;9234;49.344;11.120;2023-04-24T08:01:36;96606.00;;;13.60
18219;BMP180;9234;49.344;11.120;2023-04-24T08:04:05;96596.00;;;13.70
18219;BMP180;9234;49.344;11.120;2023-04-24T08:06:34;96603.00;;;13.80
18219;BMP180;9234;49.344;11.120;2023-04-24T08:09:03;96598.00;;;13.80
18219;BMP180;9234;49.344;11.120;2023-04-24T08:11:32;96592.00;;;13.90
18219;BMP180;9234;49.344;11.120;2023-04-24T08:14:01;96600.00;;;14.10
18219;BMP180;9234;49.344;11.120;2023-04-24T08:16:29;96604.00;;;14.10
18219;BMP180;9234;49.344;11.120;2023-04-24T08:18:58;96603.00;;;14.10
18219;BMP180;9234;49.344;11.120;2023-04-24T08:21:26;96613.00;;;13.90
18219;BMP180;9234;49.344;11.120;2023-04-24T08:23:54;96613.00;;;13.80
18219;BMP180;9234;49.344;11.120;2023-04-24T08:26:23;96618.00;;;13.80
18219;BMP180;9234;49.344;11.120;2023-04-24T08:28:53;96627.00;;;13.70
18219;BMP180;9234;49.344;11.120;2023-04-24T08:31:21;96637.00;;;13.80
18219;BMP180;9234;49.344;11.120;2023-04-24T08:33:54;96634.00;;;13.80
18219;BMP180;9234;49.344;11.120;2023-04-24T08:36:22;96643.00;;;13.90
18219;BMP180;9234;49.344;11.120;2023-04-24T08:39:05;96639.00;;;13.90
18219;BMP180;9234;49.344;11.120;2023-04-24T08:41:35;96636.00;;;14.00
18219;BMP180;9234;49.344;11.120;2023-04-24T08:44:06;96651.00;;;14.10
18219;BMP180;9234;49.344;11.120;2023-04-24T08:46:37;96640.00;;;14.30
18219;BMP180;9234;49.344;11.120;2023-04-24T08:49:06;96649.00;;;14.30
18219;BMP180;9234;49.344;11.120;2023-04-24T08:51:37;96639.00;;;14.30
18219;BMP180;9234;49.344;11.120;2023-04-24T08:54:06;96637.00;;;14.50
18219;BMP180;9234;49.344;11.120;2023-04-24T08:56:37;96640.00;;;14.60
18219;BMP180;9234;49.344;11.120;2023-04-24T08:59:09;96637.00;;;14.80
18219;BMP180;9234;49.344;11.120;2023-04-24T09:01:39;96625.00;;;15.10
18219;BMP180;9234;49.344;11.120;2023-04-24T09:04:09;96636.00;;;15.30
18219;BMP180;9234;49.344;11.120;2023-04-24T09:06:39;96621.00;;;15.50
18219;BMP180;9234;49.344;11.120;2023-04-24T09:09:10;96621.00;;;15.50
18219;BMP180;9234;49.344;11.120;2023-04-24T09:11:39;96628.00;;;15.50
18219;BMP180;9234;49.344;11.120;2023-04-24T09:14:10;96632.00;;;15.40
18219;BMP180;9234;49.344;11.120;2023-04-24T09:16:38;96625.00;;;15.40
18219;BMP180;9234;49.344;11.120;2023-04-24T09:19:07;96625.00;;;15.50
18219;BMP180;9234;49.344;11.120;2023-04-24T09:21:35;96621.00;;;15.50
18219;BMP180;9234;49.344;11.120;2023-04-24T09:24:08;96609.00;;;15.60
18219;BMP180;9234;49.344;11.120;2023-04-24T09:26:44;96623.00;;;15.60
18219;BMP180;9234;49.344;11.120;2023-04-24T09:29:16;96613.00;;;15.50
18219;BMP180;9234;49.344;11.120;2023-04-24T09:31:45;96616.00;;;15.60
18219;BMP180;9234;49.344;11.120;2023-04-24T09:34:14;96614.00;;;15.50
18219;BMP180;9234;49.344;11.120;2023-04-24T09:36:43;96624.00;;;15.50
18219;BMP180;9234;49.344;11.120;2023-04-24T09:39:15;96619.00;;;15.40
18219;BMP180;9234;49.344;11.120;2023-04-24T09:41:48;96624.00;;;15.30
18219;BMP180;9234;49.344;11.120;2023-04-24T09:44:20;96608.00;;;15.20
18219;BMP180;9234;49.344;11.120;2023-04-24T09:46:51;96611.00;;;15.10
18219;BMP180;9234;49.344;11.120;2023-04-24T09:49:24;96627.00;;;15.10
18219;BMP180;9234;49.344;11.120;2023-04-24T09:52:02;96617.00;;;15.20
18219;BMP180;9234;49.344;11.120;2023-04-24T09:54:30;96623.00;;;15.20
18219;BMP180;9234;49.344;11.120;2023-04-24T09:56:59;96616.00;;;15.20
18219;BMP180;9234;49.344;11.120;2023-04-24T09:59:29;96621.00;;;15.10
18219;BMP180;9234;49.344;11.120;2023-04-24T10:01:59;96627.00;;;15.00
18219;BMP180;9234;49.344;11.120;2023-04-24T10:04:29;96620.00;;;15.00
18219;BMP180;9234;49.344;11.120;2023-04-24T10:06:57;96623.00;;;15.00
18219;BMP180;9234;49.344;11.120;2023-04-24T10:09:27;96627.00;;;14.90
18219;BMP180;9234;49.344;11.120;2023-04-24T10:11:55;96641.00;;;14.90
18219;BMP180;9234;49.344;11.120;2023-04-24T10:14:24;96633.00;;;15.00
18219;BMP180;9234;49.344;11.120;2023-04-24T10:16:55;96633.00;;;15.20
18219;BMP180;9234;49.344;11.120;2023-04-24T10:19:26;96635.00;;;15.40
18219;BMP180;9234;49.344;11.120;2023-04-24T10:21:56;96628.00;;;16.00
18219;BMP180;9234;49.344;11.120;2023-04-24T10:24:25;96639.00;;;16.70
18219;BMP180;9234;49.344;11.120;2023-04-24T10:26:54;96630.00;;;16.90
18219;BMP180;9234;49.344;11.120;2023-04-24T10:29:24;96623.00;;;17.00
18219;BMP180;9234;49.344;11.120;2023-04-24T10:31:54;96647.00;;;16.80
18219;BMP180;9234;49.344;11.120;2023-04-24T10:34:23;96664.00;;;16.50
18219;BMP180;9234;49.344;11.120;2023-04-24T10:36:54;96660.00;;;16.20
18219;BMP180;9234;49.344;11.120;2023-04-24T10:39:24;96653.00;;;16.10
18219;BMP180;9234;49.344;11.120;2023-04-24T10:41:55;96643.00;;;16.20
18219;BMP180;9234;49.344;11.120;2023-04-24T10:44:24;96664.00;;;16.40
18219;BMP180;9234;49.344;11.120;2023-04-24T10:46:55;96675.00;;;16.50
18219;BMP180;9234;49.344;11.120;2023-04-24T10:49:29;96647.00;;;16.60
18219;BMP180;9234;49.344;11.120;2023-04-24T10:52:03;96649.00;;;16.60
18219;BMP180;9234;49.344;11.120;2023-04-24T10:54:36;96658.00;;;16.50
18219;BMP180;9234;49.344;11.120;2023-04-24T10:57:27;96642.00;;;17.00
18219;BMP180;9234;49.344;11.120;2023-04-24T11:00:21;96645.00;;;17.30
18219;BMP180;9234;49.344;11.120;2023-04-24T11:02:53;96645.00;;;17.20
18219;BMP180;9234;49.344;11.120;2023-04-24T11:05:22;96648.00;;;17.10
18219;BMP180;9234;49.344;11.120;2023-04-24T11:08:12;96675.00;;;17.10
18219;BMP180;9234;49.344;11.120;2023-04-24T11:10:44;96666.00;;;17.00
18219;BMP180;9234;49.344;11.120;2023-04-24T11:13:16;96687.00;;;16.80
18219;BMP180;9234;49.344;11.120;2023-04-24T11:15:44;96684.00;;;16.60
18219;BMP180;9234;49.344;11.120;2023-04-24T11:18:15;96688.00;;;16.40
18219;BMP180;9234;49.344;11.120;2023-04-24T11:20:44;96673.00;;;16.10
18219;BMP180;9234;49.344;11.120;2023-04-24T11:23:13;96703.00;;;16.10
18219;BMP180;9234;49.344;11.120;2023-04-24T11:25:42;96701.00;;;16.10
18219;BMP180;9234;49.344;11.120;2023-04-24T11:28:15;96697.00;;;16.10
18219;BMP180;9234;49.344;11.120;2023-04-24T11:30:44;96693.00;;;16.20
18219;BMP180;9234;49.344;11.120;2023-04-24T11:33:21;96700.00;;;16.30
18219;BMP180;9234;49.344;11.120;2023-04-24T11:35:51;96694.00;;;16.50
18219;BMP180;9234;49.344;11.120;2023-04-24T11:38:20;96711.00;;;16.50
18219;BMP180;9234;49.344;11.120;2023-04-24T11:40:51;96712.00;;;16.60
18219;BMP180;9234;49.344;11.120;2023-04-24T11:43:20;96695.00;;;16.80
18219;BMP180;9234;49.344;11.120;2023-04-24T11:45:49;96690.00;;;17.00
18219;BMP180;9234;49.344;11.120;2023-04-24T11:48:20;96700.00;;;16.80
18219;BMP180;9234;49.344;11.120;2023-04-24T11:50:50;96705.00;;;16.80
18219;BMP180;9234;49.344;11.120;2023-04-24T11:53:20;96714.00;;;16.70
18219;BMP180;9234;49.344;11.120;2023-04-24T11:55:48;96698.00;;;16.60
18219;BMP180;9234;49.344;11.120;2023-04-24T11:58:21;96702.00;;;16.50
18219;BMP180;9234;49.344;11.120;2023-04-24T12:00:56;96718.00;;;16.30
18219;BMP180;9234;49.344;11.120;2023-04-24T12:03:27;96721.00;;;16.10
18219;BMP180;9234;49.344;11.120;2023-04-24T12:06:05;96720.00;;;16.00
18219;BMP180;9234;49.344;11.120;2023-04-24T12:08:34;96722.00;;;16.10
18219;BMP180;9234;49.344;11.120;2023-04-24T12:11:07;96705.00;;;16.30
18219;BMP180;9234;49.344;11.120;2023-04-24T12:13:35;96715.00;;;16.60
18219;BMP180;9234;49.344;11.120;2023-04-24T12:16:04;96710.00;;;16.70
18219;BMP180;9234;49.344;11.120;2023-04-24T12:18:34;96712.00;;;16.80
18219;BMP180;9234;49.344;11.120;2023-04-24T12:21:16;96726.00;;;16.70
18219;BMP180;9234;49.344;11.120;2023-04-24T12:23:48;96724.00;;;16.70
18219;BMP180;9234;49.344;11.120;2023-04-24T12:26:18;96749.00;;;16.80
18219;BMP180;9234;49.344;11.120;2023-04-24T12:28:49;96736.00;;;17.00
18219;BMP180;9234;49.344;11.120;2023-04-24T12:31:17;96735.00;;;17.00
18219;BMP180;9234;49.344;11.120;2023-04-24T12:33:50;96750.00;;;16.90
18219;BMP180;9234;49.344;11.120;2023-04-24T12:36:21;96732.00;;;16.90
18219;BMP180;9234;49.344;11.120;2023-04-24T12:38:53;96730.00;;;16.80
18219;BMP180;9234;49.344;11.120;2023-04-24T12:41:21;96744.00;;;16.60
18219;BMP180;9234;49.344;11.120;2023-04-24T12:43:53;96743.00;;;16.40
18219;BMP180;9234;49.344;11.120;2023-04-24T12:46:22;96743.00;;;16.20
18219;BMP180;9234;49.344;11.120;2023-04-24T12:48:52;96773.00;;;16.00
18219;BMP180;9234;49.344;11.120;2023-04-24T12:51:20;96763.00;;;16.00
18219;BMP180;9234;49.344;11.120;2023-04-24T12:53:48;96763.00;;;15.90
18219;BMP180;9234;49.344;11.120;2023-04-24T12:56:16;96749.00;;;15.90
18219;BMP180;9234;49.344;11.120;2023-04-24T12:58:45;96768.00;;;15.90
18219;BMP180;9234;49.344;11.120;2023-04-24T13:01:13;96761.00;;;16.00
18219;BMP180;9234;49.344;11.120;2023-04-24T13:03:41;96765.00;;;16.20
18219;BMP180;9234;49.344;11.120;2023-04-24T13:06:12;96769.00;;;16.30
18219;BMP180;9234;49.344;11.120;2023-04-24T13:08:40;96752.00;;;16.40
18219;BMP180;9234;49.344;11.120;2023-04-24T13:11:09;96745.00;;;16.50
18219;BMP180;9234;49.344;11.120;2023-04-24T13:13:37;96763.00;;;16.60
18219;BMP180;9234;49.344;11.120;2023-04-24T13:16:06;96753.00;;;16.60
18219;BMP180;9234;49.344;11.120;2023-04-24T13:18:34;96762.00;;;16.60
18219;BMP180;9234;49.344;11.120;2023-04-24T13:21:03;96750.00;;;16.40
18219;BMP180;9234;49.344;11.120;2023-04-24T13:23:32;96744.00;;;16.30
18219;BMP180;9234;49.344;11.120;2023-04-24T13:26:01;96756.00;;;16.10
18219;BMP180;9234;49.344;11.120;2023-04-24T13:28:30;96760.00;;;16.00
18219;BMP180;9234;49.344;11.120;2023-04-24T13:30:58;96760.00;;;16.00
18219;BMP180;9234;49.344;11.120;2023-04-24T13:33:27;96788.00;;;15.90
18219;BMP180;9234;49.344;11.120;2023-04-24T13:35:55;96770.00;;;15.70
18219;BMP180;9234;49.344;11.120;2023-04-24T13:38:23;96750.00;;;15.80
18219;BMP180;9234;49.344;11.120;2023-04-24T13:40:53;96752.00;;;16.00
18219;BMP180;9234;49.344;11.120;2023-04-24T13:43:21;96765.00;;;16.50
18219;BMP180;9234;49.344;11.120;2023-04-24T13:45:50;96749.00;;;16.90
18219;BMP180;9234;49.344;11.120;2023-04-24T13:48:18;96751.00;;;16.90
18219;BMP180;9234;49.344;11.120;2023-04-24T13:50:46;96754.00;;;16.70
18219;BMP180;9234;49.344;11.120;2023-04-24T13:53:16;96761.00;;;16.30
18219;BMP180;9234;49.344;11.120;2023-04-24T13:55:45;96772.00;;;16.00
18219;BMP180;9234;49.344;11.120;2023-04-24T13:58:14;96770.00;;;15.70
18219;BMP180;9234;49.344;11.120;2023-04-24T14:00:43;96774.00;;;15.40
18219;BMP180;9234;49.344;11.120;2023-04-24T14:03:12;96769.00;;;15.20
18219;BMP180;9234;49.344;11.120;2023-04-24T14:05:41;96779.00;;;15.00
18219;BMP180;9234;49.344;11.120;2023-04-24T14:08:09;96782.00;;;14.90
18219;BMP180;9234;49.344;11.120;2023-04-24T14:10:37;96779.00;;;15.00
18219;BMP180;9234;49.344;11.120;2023-04-24T14:13:05;96778.00;;;15.20
18219;BMP180;9234;49.344;11.120;2023-04-24T14:15:36;96774.00;;;15.30
18219;BMP180;9234;49.344;11.120;2023-04-24T14:18:04;96772.00;;;15.90
18219;BMP180;9234;49.344;11.120;2023-04-24T14:20:33;96764.00;;;17.20
18219;BMP180;9234;49.344;11.120;2023-04-24T14:23:01;96779.00;;;19.00
18219;BMP180;9234;49.344;11.120;2023-04-24T14:25:29;96772.00;;;20.50